Time;durP1;ratioP1;P1;durP2;ratioP2;P2;SDS_P1;SDS_P2;PMS_P1;PMS_P2;Temp;Humidity;BMP_temperature;BMP_pressure;BME280_temperature;BME280_humidity;BME280_pressure;Samples;Min_cycle;Max_cycle;Signal;HPM_P1;HPM_P2
2022/07/29 00:00:44;;;;;;;4.45;1.90;;;;;;;17.85;57.10;101597.19;5064386;28;20028;-71
2022/07/29 00:03:13;;;;;;;5.82;2.00;;;;;;;17.84;56.76;101606.03;5059208;28;20073;-71
2022/07/29 00:05:40;;;;;;;3.72;1.50;;;;;;;17.82;56.93;101597.38;5051670;28;20029;-71
2022/07/29 00:08:06;;;;;;;3.40;1.73;;;;;;;17.78;56.55;101596.59;5064894;28;20145;-71
2022/07/29 00:10:31;;;;;;;13.23;2.20;;;;;;;17.75;57.53;101601.13;5060081;28;20115;-71
2022/07/29 00:12:56;;;;;;;3.17;1.98;;;;;;;17.75;56.77;101595.84;5057414;28;20028;-71
2022/07/29 00:15:22;;;;;;;3.03;1.98;;;;;;;17.77;57.10;101599.31;5047615;28;20025;-71
2022/07/29 00:17:47;;;;;;;6.18;2.03;;;;;;;17.77;57.84;101599.31;5049972;28;20033;-72
2022/07/29 00:20:12;;;;;;;3.10;2.08;;;;;;;17.78;56.18;101598.38;5047625;28;20044;-72
2022/07/29 00:22:39;;;;;;;7.32;2.53;;;;;;;17.80;57.96;101599.19;5050727;28;20590;-71
2022/07/29 00:25:05;;;;;;;5.97;1.80;;;;;;;17.72;56.75;101590.69;5049422;28;20074;-71
2022/07/29 00:27:30;;;;;;;3.85;1.80;;;;;;;17.79;56.07;101605.41;5049866;28;20132;-71
2022/07/29 00:29:56;;;;;;;4.32;1.80;;;;;;;17.76;57.13;101603.75;5050236;28;20121;-71
2022/07/29 00:32:21;;;;;;;5.18;2.03;;;;;;;17.77;57.27;101604.59;5051193;28;20495;-71
2022/07/29 00:37:30;;;;;;;;;;;;;;;17.82;56.37;101618.47;5052891;28;20095;-71
2022/07/29 00:39:55;;;;;;;4.55;1.80;;;;;;;17.70;57.19;101619.78;5052507;28;19917;-71
2022/07/29 00:42:20;;;;;;;5.32;2.15;;;;;;;17.70;58.06;101637.38;5052405;28;20055;-71
2022/07/29 00:44:45;;;;;;;2.80;1.70;;;;;;;17.64;57.74;101641.13;5053692;28;20062;-72
2022/07/29 00:47:11;;;;;;;2.30;1.60;;;;;;;17.62;58.52;101663.19;5050578;28;20052;-71
2022/07/29 00:49:39;;;;;;;3.95;1.88;;;;;;;17.62;60.35;101663.19;5053860;28;20143;-71
2022/07/29 00:52:05;;;;;;;6.97;2.55;;;;;;;17.64;57.87;101650.81;5053846;28;20028;-71
2022/07/29 00:54:33;;;;;;;2.67;1.77;;;;;;;17.62;59.27;101631.53;5052246;28;20055;-71
2022/07/29 00:56:58;;;;;;;4.70;2.10;;;;;;;17.63;58.23;101620.09;5053012;28;20108;-72
2022/07/29 00:59:25;;;;;;;14.65;2.35;;;;;;;17.65;58.88;101618.25;5052756;28;20525;-71
2022/07/29 01:01:51;;;;;;;4.72;2.03;;;;;;;17.64;58.40;101616.53;5050901;28;20078;-71
2022/07/29 01:04:16;;;;;;;2.92;1.70;;;;;;;17.61;58.86;101606.13;5053430;28;20024;-71
2022/07/29 01:06:42;;;;;;;3.53;2.00;;;;;;;17.51;60.53;101581.91;5051735;28;20075;-71
2022/07/29 01:09:08;;;;;;;6.13;2.17;;;;;;;17.52;61.76;101584.47;5052275;28;20041;-71
2022/07/29 01:11:35;;;;;;;5.07;2.10;;;;;;;17.45;62.09;101566.31;5051940;28;20039;-71
2022/07/29 01:14:01;;;;;;;3.67;1.90;;;;;;;17.35;63.35;101570.25;5051831;28;20052;-71
2022/07/29 01:16:40;;;;;;;4.72;2.33;;;;;;;17.24;62.58;101562.78;5048531;28;20044;-71
2022/07/29 01:19:45;;;;;;;4.63;2.50;;;;;;;17.11;63.05;101558.94;5045884;28;20032;-71
2022/07/29 01:22:29;;;;;;;5.28;2.80;;;;;;;16.88;64.40;101546.66;5050382;28;20815;-71
2022/07/29 01:25:27;;;;;;;8.70;3.33;;;;;;;16.87;64.49;101537.00;5050939;28;20035;-71
2022/07/29 01:28:29;;;;;;;5.55;3.67;;;;;;;16.84;65.93;101516.94;5051326;28;20044;-71
2022/07/29 01:30:56;;;;;;;6.65;4.25;;;;;;;16.76;68.50;101517.22;5050212;28;20091;-71
2022/07/29 01:36:17;;;;;;;7.38;4.15;;;;;;;16.69;68.65;101499.91;5050018;28;20420;-71
2022/07/29 01:38:46;;;;;;;7.28;4.20;;;;;;;16.68;68.72;101513.16;5052032;28;20051;-71
2022/07/29 01:41:16;;;;;;;6.07;4.68;;;;;;;16.63;68.86;101510.69;5051107;28;20033;-71
2022/07/29 01:43:53;;;;;;;7.55;4.70;;;;;;;16.56;69.37;101512.69;5049132;28;20468;-71
2022/07/29 01:46:31;;;;;;;5.53;3.75;;;;;;;16.49;69.39;101510.34;5045237;28;20025;-71
2022/07/29 01:49:06;;;;;;;9.38;4.13;;;;;;;16.46;68.55;101526.25;5051755;28;20498;-71
2022/07/29 01:51:43;;;;;;;6.93;4.05;;;;;;;16.45;68.79;101533.31;5051836;28;20037;-71
2022/07/29 01:54:19;;;;;;;4.90;3.63;;;;;;;16.45;69.68;101545.56;5050263;28;20024;-71
2022/07/29 01:56:48;;;;;;;5.97;3.65;;;;;;;16.45;70.00;101543.81;5051908;28;20112;-71
2022/07/29 01:59:17;;;;;;;5.43;3.70;;;;;;;16.44;70.27;101539.44;5051290;28;20109;-71
2022/07/29 02:01:45;;;;;;;6.43;3.70;;;;;;;16.42;70.97;101533.41;5051394;28;20033;-71
2022/07/29 02:04:12;;;;;;;8.65;3.65;;;;;;;16.37;71.60;101528.31;5050652;28;20037;-71
2022/07/29 02:06:40;;;;;;;6.22;3.60;;;;;;;16.38;71.75;101518.63;5051017;28;20477;-71
2022/07/29 02:09:08;;;;;;;8.25;3.50;;;;;;;16.35;71.69;101509.09;5049384;28;20080;-71
2022/07/29 02:11:35;;;;;;;6.18;3.38;;;;;;;16.37;71.74;101517.78;5051561;28;20074;-71
2022/07/29 02:14:01;;;;;;;5.70;3.45;;;;;;;16.37;71.25;101519.56;5050872;28;20074;-71
2022/07/29 02:16:31;;;;;;;4.32;3.10;;;;;;;16.39;71.49;101517.72;5041191;28;20127;-71
2022/07/29 02:18:59;;;;;;;5.47;2.95;;;;;;;16.43;71.25;101518.47;5050198;28;20476;-71
2022/07/29 02:21:26;;;;;;;5.78;3.17;;;;;;;16.34;70.84;101504.72;5049708;28;20075;-71
2022/07/29 02:23:54;;;;;;;8.43;3.10;;;;;;;16.30;71.51;101515.44;5049947;28;20033;-71
2022/07/29 02:26:22;;;;;;;7.22;3.03;;;;;;;16.31;71.42;101515.38;5050415;28;20025;-71
2022/07/29 02:28:49;;;;;;;3.97;3.20;;;;;;;16.24;72.17;101518.28;5051764;28;20021;-72
2022/07/29 02:31:17;;;;;;;4.00;3.00;;;;;;;16.23;72.51;101519.22;5051634;28;20033;-72
2022/07/29 02:33:43;;;;;;;6.47;3.00;;;;;;;16.14;72.17;101515.13;5049759;28;20040;-71
2022/07/29 02:36:10;;;;;;;6.75;3.03;;;;;;;16.09;72.31;101514.44;5050344;28;20040;-71
2022/07/29 02:38:50;;;;;;;5.43;3.13;;;;;;;16.18;72.53;101518.50;5051914;28;20055;-71
2022/07/29 02:41:23;;;;;;;5.63;3.05;;;;;;;16.14;71.46;101510.72;5048613;28;20520;-71
2022/07/29 02:43:52;;;;;;;5.85;2.80;;;;;;;16.15;72.21;101507.19;5049794;28;20032;-71
2022/07/29 02:46:26;;;;;;;5.05;2.90;;;;;;;16.17;72.34;101503.66;5048405;28;20093;-71
2022/07/29 02:48:53;;;;;;;;;;;;;;;16.22;71.11;101507.84;5049869;28;20051;-71
2022/07/29 02:51:32;;;;;;;5.63;3.33;;;;;;;16.17;71.08;101506.28;5051304;28;20114;-71
2022/07/29 02:54:05;;;;;;;5.00;3.17;;;;;;;16.16;71.73;101513.31;5050807;28;20159;-71
2022/07/29 02:56:34;;;;;;;11.13;3.35;;;;;;;16.17;72.25;101516.78;5050201;28;20519;-71
2022/07/29 02:59:03;;;;;;;6.25;2.90;;;;;;;16.19;72.87;101518.47;5050957;28;20032;-71
2022/07/29 03:01:32;;;;;;;6.70;3.25;;;;;;;16.11;73.19;101523.97;5048910;28;20029;-71
2022/07/29 03:04:02;;;;;;;5.25;3.22;;;;;;;16.08;73.80;101521.44;5050123;28;20017;-71
2022/07/29 03:06:29;;;;;;;4.35;3.10;;;;;;;16.04;74.11;101517.22;5049989;28;20029;-71
2022/07/29 03:08:57;;;;;;;5.18;3.20;;;;;;;16.04;74.33;101513.75;5049716;28;20515;-71
2022/07/29 03:11:23;;;;;;;3.80;3.40;;;;;;;16.07;73.91;101506.59;5050848;28;20044;-71
2022/07/29 03:13:49;;;;;;;13.48;3.97;;;;;;;16.08;73.42;101520.59;5050982;28;20025;-71
2022/07/29 03:16:15;;;;;;;8.73;3.08;;;;;;;16.01;72.61;101525.22;5048585;28;20052;-71
2022/07/29 03:18:41;;;;;;;3.90;3.08;;;;;;;16.00;73.61;101513.00;5051086;28;20029;-71
2022/07/29 03:21:07;;;;;;;27.65;4.05;;;;;;;16.06;74.34;101517.19;5050795;28;20029;-71
2022/07/29 03:23:33;;;;;;;5.00;3.40;;;;;;;16.07;73.66;101509.22;5050045;28;20349;-71
2022/07/29 03:25:58;;;;;;;4.43;3.30;;;;;;;16.05;72.71;101511.03;5049214;28;20032;-71
2022/07/29 03:28:24;;;;;;;4.45;3.08;;;;;;;16.06;73.24;101515.41;5051052;28;20033;-71
2022/07/29 03:30:49;;;;;;;8.30;3.55;;;;;;;16.03;71.93;101514.66;5049149;28;20017;-71
2022/07/29 03:33:15;;;;;;;5.32;2.88;;;;;;;16.06;72.70;101512.78;5049249;28;20104;-71
2022/07/29 03:35:41;;;;;;;6.50;3.15;;;;;;;16.03;72.86;101510.25;5048505;28;20472;-71
2022/07/29 03:38:06;;;;;;;4.90;3.10;;;;;;;16.02;72.87;101507.66;5049950;28;20094;-71
2022/07/29 03:40:37;;;;;;;6.53;3.33;;;;;;;16.01;72.80;101513.84;5051236;28;20037;-71
2022/07/29 03:43:05;;;;;;;7.32;3.30;;;;;;;15.95;72.67;101514.06;5050311;28;20049;-71
2022/07/29 03:45:33;;;;;;;6.78;3.05;;;;;;;15.84;72.88;101511.81;5049332;28;20028;-71
2022/07/29 03:48:08;;;;;;;6.25;3.72;;;;;;;15.77;72.89;101515.56;5050906;28;20029;-71
2022/07/29 03:50:34;;;;;;;5.35;3.10;;;;;;;15.77;73.54;101511.16;5049939;28;20028;-71
2022/07/29 03:53:01;;;;;;;7.40;3.60;;;;;;;15.74;73.36;101505.16;5049792;28;20112;-71
2022/07/29 03:55:29;;;;;;;4.28;3.15;;;;;;;15.74;73.59;101500.75;5049162;28;20041;-71
2022/07/29 03:57:56;;;;;;;5.53;3.40;;;;;;;15.75;73.55;101507.72;5049822;28;20032;-71
2022/07/29 04:00:24;;;;;;;5.93;3.53;;;;;;;15.74;73.10;101505.16;5050027;28;20124;-71
2022/07/29 04:02:49;;;;;;;11.27;3.40;;;;;;;15.73;73.18;101504.31;5050445;28;20037;-71
2022/07/29 04:05:15;;;;;;;6.03;3.20;;;;;;;15.68;73.42;101499.19;5048563;28;20116;-71
2022/07/29 04:07:48;;;;;;;5.25;3.55;;;;;;;15.70;73.61;101499.16;5052111;28;20041;-71
2022/07/29 04:10:15;;;;;;;9.05;3.53;;;;;;;15.64;73.05;101491.44;5052869;28;20036;-71
2022/07/29 04:12:40;;;;;;;6.47;2.88;;;;;;;15.68;73.34;101491.31;5052143;28;20048;-71
2022/07/29 04:15:07;;;;;;;4.43;3.00;;;;;;;15.72;73.21;101488.56;5052231;28;20116;-71
2022/07/29 04:17:32;;;;;;;3.80;2.78;;;;;;;15.68;73.07;101486.03;5054588;28;20167;-71
2022/07/29 04:19:57;;;;;;;4.75;3.22;;;;;;;15.75;72.96;101498.97;5052925;28;20037;-71
2022/07/29 04:22:22;;;;;;;4.75;3.05;;;;;;;15.76;73.76;101496.31;5053006;28;20060;-71
2022/07/29 04:24:48;;;;;;;5.32;3.20;;;;;;;15.68;73.48;101479.94;5051771;28;20026;-71
2022/07/29 04:27:13;;;;;;;5.90;3.08;;;;;;;15.73;73.80;101483.28;5053653;28;20514;-71
2022/07/29 04:29:38;;;;;;;7.10;2.95;;;;;;;15.75;73.43;101496.34;5051732;28;20032;-71
2022/07/29 04:32:04;;;;;;;4.63;3.30;;;;;;;15.72;73.29;101493.81;5053392;28;20697;-71
2022/07/29 04:34:29;;;;;;;4.57;3.10;;;;;;;15.71;73.70;101489.50;5052603;28;20029;-71
2022/07/29 04:36:55;;;;;;;4.82;3.05;;;;;;;15.68;73.09;101496.56;5053937;28;20017;-71
2022/07/29 04:39:20;;;;;;;6.93;3.35;;;;;;;15.62;73.26;101507.25;5051778;28;20476;-71
2022/07/29 04:41:47;;;;;;;6.30;3.05;;;;;;;15.66;73.75;101519.44;5052365;28;20443;-71
2022/07/29 04:44:12;;;;;;;6.07;3.00;;;;;;;15.73;73.12;101525.34;5052629;28;20025;-71
2022/07/29 04:46:38;;;;;;;5.15;3.50;;;;;;;15.74;73.21;101532.31;5051700;28;20138;-71
2022/07/29 04:49:04;;;;;;;6.75;4.15;;;;;;;15.77;73.79;101531.34;5053574;28;20055;-71
2022/07/29 04:51:29;;;;;;;4.85;2.85;;;;;;;15.79;73.68;101534.75;5053146;28;20025;-71
2022/07/29 04:53:54;;;;;;;6.32;3.47;;;;;;;15.78;73.29;101535.69;5050937;28;20549;-71
2022/07/29 04:56:19;;;;;;;4.40;3.13;;;;;;;15.75;72.93;101547.16;5052266;28;20398;-71
2022/07/29 04:58:45;;;;;;;12.82;3.47;;;;;;;15.80;74.19;101550.50;5051659;28;20025;-71
2022/07/29 05:01:10;;;;;;;6.57;3.20;;;;;;;15.82;73.55;101550.44;5052164;28;20028;-72
2022/07/29 05:03:36;;;;;;;4.38;3.40;;;;;;;15.82;73.71;101556.53;5052240;28;20053;-71
2022/07/29 05:06:01;;;;;;;6.80;3.85;;;;;;;15.82;73.64;101559.16;5053128;28;20030;-71
2022/07/29 05:08:26;;;;;;;4.80;3.30;;;;;;;15.84;74.00;101564.41;5050472;28;20057;-71
2022/07/29 05:10:52;;;;;;;5.53;3.63;;;;;;;15.89;74.39;101562.44;5052754;28;20538;-71
2022/07/29 05:13:17;;;;;;;3.67;3.03;;;;;;;15.92;74.11;101559.72;5052449;28;20460;-71
2022/07/29 05:15:43;;;;;;;4.68;3.65;;;;;;;15.90;73.86;101559.78;5052471;28;20091;-71
2022/07/29 05:18:08;;;;;;;7.25;4.00;;;;;;;15.90;74.29;101554.53;5050906;28;20033;-71
2022/07/29 05:20:34;;;;;;;7.68;3.70;;;;;;;15.86;74.10;101555.56;5051210;28;20489;-71
2022/07/29 05:23:01;;;;;;;6.55;3.80;;;;;;;15.88;74.66;101552.84;5051854;28;20021;-71
2022/07/29 05:25:27;;;;;;;5.65;3.90;;;;;;;15.90;74.22;101558.94;5051946;28;20063;-71
2022/07/29 05:27:53;;;;;;;11.13;3.83;;;;;;;15.93;75.09;101569.34;5051201;28;20423;-71
2022/07/29 05:30:18;;;;;;;4.57;3.63;;;;;;;15.87;74.89;101559.03;5050328;28;20033;-71
2022/07/29 05:32:44;;;;;;;7.13;4.25;;;;;;;15.92;75.17;101564.97;5050183;28;20087;-71
2022/07/29 05:35:11;;;;;;;7.68;4.63;;;;;;;15.92;75.08;101562.34;5051315;28;20032;-71
2022/07/29 05:37:36;;;;;;;9.23;4.07;;;;;;;15.91;75.31;101555.38;5052724;28;20090;-71
2022/07/29 05:40:03;;;;;;;5.60;3.92;;;;;;;15.87;75.74;101549.38;5052204;28;20477;-71
2022/07/29 05:42:29;;;;;;;7.88;4.40;;;;;;;15.83;75.71;101565.31;5050838;28;20505;-71
2022/07/29 05:44:54;;;;;;;6.55;4.20;;;;;;;15.85;75.94;101564.31;5050890;28;20029;-71
2022/07/29 05:47:20;;;;;;;7.82;4.57;;;;;;;15.93;75.68;101566.72;5052556;28;20032;-71
2022/07/29 05:49:45;;;;;;;7.10;4.43;;;;;;;15.93;75.66;101561.47;5051194;28;20055;-71
2022/07/29 05:52:12;;;;;;;5.97;4.18;;;;;;;16.07;75.46;101555.72;5051983;28;20527;-71
2022/07/29 05:54:38;;;;;;;6.72;4.53;;;;;;;16.21;75.02;101557.84;5050407;28;20481;-71
2022/07/29 05:57:03;;;;;;;8.15;4.93;;;;;;;16.28;74.03;101554.94;5051841;28;20021;-71
2022/07/29 05:59:28;;;;;;;6.90;4.85;;;;;;;16.33;74.15;101560.06;5049907;28;20029;-71
2022/07/29 06:01:54;;;;;;;9.43;4.90;;;;;;;16.33;74.51;101549.53;5050273;28;20033;-71
2022/07/29 06:04:19;;;;;;;7.10;5.00;;;;;;;16.33;73.96;101557.41;5050427;28;20029;-71
2022/07/29 06:06:45;;;;;;;8.35;5.35;;;;;;;16.31;73.92;101559.25;5051913;28;20021;-71
2022/07/29 06:09:10;;;;;;;10.43;5.70;;;;;;;16.37;73.72;101564.28;5050026;28;20043;-72
2022/07/29 06:11:35;;;;;;;7.90;5.28;;;;;;;16.36;74.07;101562.56;5051258;28;20021;-71
2022/07/29 06:14:02;;;;;;;7.00;5.18;;;;;;;16.34;74.37;101559.97;5051628;28;20021;-71
2022/07/29 06:16:28;;;;;;;8.55;5.13;;;;;;;16.36;74.37;101566.06;5049804;28;20032;-71
2022/07/29 06:18:53;;;;;;;12.07;5.35;;;;;;;16.35;74.59;101553.84;5050812;28;20021;-71
2022/07/29 06:21:18;;;;;;;7.50;4.70;;;;;;;16.44;73.72;101570.19;5050848;28;20033;-71
2022/07/29 06:23:44;;;;;;;7.55;4.97;;;;;;;16.43;74.15;101564.06;5051762;28;20029;-71
2022/07/29 06:26:10;;;;;;;9.63;5.50;;;;;;;16.38;73.65;101566.88;5050936;28;20021;-71
2022/07/29 06:28:35;;;;;;;7.70;5.45;;;;;;;16.39;73.60;101565.94;5051034;28;20036;-71
2022/07/29 06:31:01;;;;;;;7.88;5.25;;;;;;;16.42;73.79;101561.50;5048073;28;20064;-71
2022/07/29 06:33:26;;;;;;;8.38;5.47;;;;;;;16.38;73.77;101564.25;5050218;28;20025;-71
2022/07/29 06:35:52;;;;;;;8.45;5.78;;;;;;;16.41;73.77;101567.66;5050917;28;20435;-75
2022/07/29 06:38:17;;;;;;;8.70;5.60;;;;;;;16.39;73.64;101559.84;5050507;28;20029;-75
2022/07/29 06:43:33;;;;;;;8.95;6.00;;;;;;;16.44;73.61;101573.66;5044698;28;20381;-74
2022/07/29 06:46:01;;;;;;;8.90;5.20;;;;;;;16.38;73.76;101566.00;5048713;28;20047;-74
2022/07/29 06:48:27;;;;;;;8.20;5.88;;;;;;;16.32;73.60;101560.97;5050367;28;20054;-74
2022/07/29 06:50:52;;;;;;;9.23;6.00;;;;;;;16.29;73.76;101564.56;5048354;28;20583;-74
2022/07/29 06:53:17;;;;;;;9.50;6.05;;;;;;;16.16;74.58;101565.91;5049056;28;20044;-74
2022/07/29 06:55:42;;;;;;;8.75;6.30;;;;;;;16.19;74.59;101578.97;5049046;28;20427;-74
2022/07/29 06:58:08;;;;;;;7.00;5.75;;;;;;;16.23;74.75;101582.34;5049974;28;20056;-74
2022/07/29 07:00:36;;;;;;;11.60;5.85;;;;;;;16.35;75.70;101576.66;5048124;28;20029;-74
2022/07/29 07:03:02;;;;;;;8.43;6.35;;;;;;;16.45;73.92;101580.66;5051373;28;20258;-74
2022/07/29 07:05:27;;;;;;;7.65;6.10;;;;;;;16.54;73.71;101587.34;5049775;28;20441;-73
2022/07/29 07:07:52;;;;;;;7.38;6.15;;;;;;;16.68;75.18;101585.09;5049197;28;20622;-74
2022/07/29 07:10:18;;;;;;;8.63;6.32;;;;;;;16.83;74.16;101583.69;5050045;28;20048;-74
2022/07/29 07:12:43;;;;;;;7.72;5.70;;;;;;;17.01;74.33;101588.25;5049539;28;20550;-74
2022/07/29 07:15:09;;;;;;;10.43;5.68;;;;;;;17.05;72.57;101595.13;5048559;28;20025;-74
2022/07/29 07:17:34;;;;;;;9.10;5.78;;;;;;;17.09;72.82;101601.13;5049386;28;20469;-74
2022/07/29 07:19:59;;;;;;;10.73;5.63;;;;;;;17.08;72.69;101595.00;5051549;28;20360;-73
2022/07/29 07:22:25;;;;;;;7.68;5.30;;;;;;;17.22;71.93;101588.31;5050316;28;20025;-73
2022/07/29 07:24:50;;;;;;;7.25;5.40;;;;;;;17.45;71.94;101585.63;5050721;28;20367;-74
2022/07/29 07:27:15;;;;;;;5.88;5.28;;;;;;;17.61;69.92;101590.28;5050353;28;20029;-74
2022/07/29 07:29:41;;;;;;;8.40;5.15;;;;;;;17.73;69.85;101588.00;5046025;28;20028;-74
2022/07/29 07:32:06;;;;;;;10.23;5.40;;;;;;;17.85;68.59;101589.28;5050909;28;20444;-74
2022/07/29 07:34:32;;;;;;;6.32;5.03;;;;;;;18.08;68.82;101590.94;5051030;28;20405;-74
2022/07/29 07:36:57;;;;;;;8.85;5.60;;;;;;;18.26;68.71;101581.41;5050253;28;20021;-74
2022/07/29 07:39:22;;;;;;;8.40;5.10;;;;;;;18.36;68.93;101592.41;5049112;28;20033;-73
2022/07/29 07:41:48;;;;;;;9.27;5.60;;;;;;;18.39;67.17;101590.50;5049392;28;20039;-74
2022/07/29 07:44:13;;;;;;;6.80;5.60;;;;;;;18.43;67.04;101594.69;5052877;28;20052;-73
2022/07/29 07:46:38;;;;;;;7.57;5.85;;;;;;;18.24;66.67;101589.38;5053237;28;20032;-75
2022/07/29 07:49:03;;;;;;;7.38;5.38;;;;;;;18.13;66.74;101596.91;5048767;28;20497;-74
2022/07/29 07:51:29;;;;;;;6.18;5.10;;;;;;;18.17;67.05;101598.47;5064088;28;20064;-73
2022/07/29 07:53:54;;;;;;;7.22;4.55;;;;;;;18.27;67.96;101591.03;5069177;28;20038;-73
2022/07/29 07:56:19;;;;;;;8.80;5.22;;;;;;;18.31;65.77;101589.97;5065263;28;20043;-73
2022/07/29 07:58:45;;;;;;;7.50;5.00;;;;;;;18.44;65.97;101591.16;5055046;28;20067;-74
2022/07/29 08:01:10;;;;;;;12.18;5.50;;;;;;;18.59;65.74;101599.31;5053836;28;20029;-73
2022/07/29 08:03:36;;;;;;;9.95;5.18;;;;;;;18.61;66.68;101587.75;5063288;28;20032;-74
2022/07/29 08:06:02;;;;;;;9.25;4.65;;;;;;;18.74;67.03;101592.50;5057195;28;20021;-74
2022/07/29 08:08:27;;;;;;;7.93;5.43;;;;;;;18.81;66.06;101592.16;5071633;28;20041;-74
2022/07/29 08:10:53;;;;;;;8.10;4.85;;;;;;;18.82;66.03;101604.44;5049905;28;20033;-74
2022/07/29 08:13:21;;;;;;;7.15;5.32;;;;;;;18.85;65.14;101593.72;5054625;28;20098;-73
2022/07/29 08:15:46;;;;;;;8.88;6.22;;;;;;;18.90;64.84;101599.66;5057388;28;20028;-74
2022/07/29 08:18:12;;;;;;;7.60;5.63;;;;;;;19.04;67.35;101599.00;5058663;28;20139;-74
2022/07/29 08:20:38;;;;;;;5.65;5.03;;;;;;;19.10;64.86;101601.38;5064645;28;20043;-74
2022/07/29 08:23:06;;;;;;;7.95;4.95;;;;;;;19.13;63.71;101587.16;5061154;28;20024;-74
2022/07/29 08:25:40;;;;;;;8.15;5.40;;;;;;;19.30;65.09;101602.22;5053934;28;20391;-74
2022/07/29 08:28:05;;;;;;;7.55;5.30;;;;;;;19.37;64.32;101604.47;5051516;28;20503;-74
2022/07/29 08:30:32;;;;;;;9.23;5.20;;;;;;;19.42;64.55;101606.88;5050272;28;20032;-74
2022/07/29 08:32:58;;;;;;;10.43;5.10;;;;;;;19.57;63.23;101610.59;5052552;28;20021;-74
2022/07/29 08:35:24;;;;;;;8.15;5.45;;;;;;;19.63;64.64;101603.25;5053594;28;20075;-74
2022/07/29 08:37:50;;;;;;;9.70;5.43;;;;;;;19.72;61.46;101609.88;5048934;28;20025;-74
2022/07/29 08:40:15;;;;;;;7.60;5.28;;;;;;;19.75;61.89;101606.19;5043456;28;20055;-74
2022/07/29 08:42:41;;;;;;;10.13;4.80;;;;;;;19.80;63.79;101607.69;5052548;28;20389;-74
2022/07/29 08:45:07;;;;;;;12.23;5.38;;;;;;;19.91;60.86;101604.50;5052385;28;20052;-75
2022/07/29 08:47:32;;;;;;;7.57;4.90;;;;;;;19.95;61.50;101602.59;5052158;28;20021;-75
2022/07/29 08:49:58;;;;;;;7.53;4.95;;;;;;;20.02;60.93;101612.78;5051244;28;20555;-74
2022/07/29 08:52:26;;;;;;;7.20;5.10;;;;;;;20.04;60.09;101605.59;5048858;28;20045;-74
2022/07/29 08:54:53;;;;;;;9.55;4.72;;;;;;;20.13;60.55;101606.91;5051024;28;20102;-75
2022/07/29 08:57:19;;;;;;;7.88;4.30;;;;;;;20.31;58.74;101613.91;5053006;28;20029;-74
2022/07/29 08:59:46;;;;;;;6.10;4.35;;;;;;;20.37;59.33;101602.13;5052681;28;20029;-74
2022/07/29 09:02:19;;;;;;;8.82;4.50;;;;;;;20.54;60.35;101604.78;5053362;28;20021;-74
2022/07/29 09:04:45;;;;;;;7.68;4.63;;;;;;;20.64;60.87;101604.31;5049801;28;20028;-74
2022/07/29 09:07:17;;;;;;;6.05;5.00;;;;;;;20.75;59.92;101610.72;5051779;28;20028;-74
2022/07/29 09:09:43;;;;;;;7.97;5.18;;;;;;;20.73;59.66;101604.69;5050636;28;20080;-74
2022/07/29 09:12:11;;;;;;;12.48;5.55;;;;;;;20.81;58.73;101604.25;5051413;28;20061;-74
2022/07/29 09:14:40;;;;;;;6.90;5.30;;;;;;;20.79;58.17;101604.31;5050589;28;20029;-74
2022/07/29 09:17:06;;;;;;;5.85;4.32;;;;;;;20.98;58.91;101598.88;5048855;28;20552;-74
2022/07/29 09:19:36;;;;;;;8.93;4.63;;;;;;;21.08;56.65;101603.66;5048390;28;20503;-74
2022/07/29 09:22:05;;;;;;;9.00;4.30;;;;;;;21.27;57.99;101613.16;5049182;28;20080;-72
2022/07/29 09:24:33;;;;;;;9.27;4.40;;;;;;;21.43;57.41;101615.00;5051890;28;20063;-71
2022/07/29 09:26:58;;;;;;;7.03;4.50;;;;;;;21.55;54.91;101614.28;5053065;28;20527;-71
2022/07/29 09:29:24;;;;;;;5.88;4.13;;;;;;;21.60;56.39;101621.97;5052076;28;20052;-71
2022/07/29 09:31:52;;;;;;;8.95;4.32;;;;;;;21.57;53.39;101617.69;5052647;28;20066;-71
2022/07/29 09:34:28;;;;;;;7.28;3.92;;;;;;;21.55;55.12;101619.59;5051926;28;20024;-71
2022/07/29 09:36:54;;;;;;;9.38;4.30;;;;;;;21.72;54.51;101622.13;5052751;28;20036;-71
2022/07/29 09:39:30;;;;;;;6.78;3.78;;;;;;;21.96;56.78;101618.97;5052806;28;20021;-72
2022/07/29 09:42:02;;;;;;;6.20;3.55;;;;;;;22.04;52.33;101611.44;5051738;28;20052;-71
2022/07/29 09:44:41;;;;;;;6.18;3.67;;;;;;;22.23;53.90;101615.66;5052542;28;20101;-71
2022/07/29 09:47:06;;;;;;;5.57;3.25;;;;;;;22.30;52.93;101611.69;5052328;28;20463;-71
2022/07/29 09:49:33;;;;;;;5.93;3.83;;;;;;;22.26;52.39;101612.81;5052156;28;20112;-71
2022/07/29 09:52:04;;;;;;;6.15;4.50;;;;;;;22.27;52.18;101609.19;5052607;28;20025;-71
2022/07/29 09:54:34;;;;;;;11.23;4.10;;;;;;;22.36;53.99;101611.31;5052837;28;20420;-71
2022/07/29 09:56:59;;;;;;;6.03;4.15;;;;;;;22.39;52.99;101605.81;5051806;28;20115;-71
2022/07/29 09:59:26;;;;;;;7.30;4.22;;;;;;;22.47;52.00;101597.38;5052362;28;20534;-71
2022/07/29 10:01:52;;;;;;;7.38;4.07;;;;;;;22.60;52.91;101604.50;5052336;28;20025;-70
2022/07/29 10:04:18;;;;;;;6.32;3.35;;;;;;;22.79;54.26;101606.88;5050668;28;20522;-70
2022/07/29 10:07:01;;;;;;;7.20;3.92;;;;;;;22.87;51.88;101603.72;5052077;28;20021;-76
2022/07/29 10:09:27;;;;;;;6.80;3.33;;;;;;;22.92;51.89;101598.94;5047571;28;20053;-75
2022/07/29 10:12:23;;;;;;;5.32;3.40;;;;;;;23.05;51.84;101594.63;5045633;28;20025;-75
2022/07/29 10:14:48;;;;;;;9.10;3.60;;;;;;;23.06;50.12;101596.31;5042974;28;20040;-74
2022/07/29 10:17:15;;;;;;;8.52;4.28;;;;;;;23.11;48.47;101599.50;5044284;28;20491;-74
2022/07/29 10:19:42;;;;;;;7.55;3.03;;;;;;;23.28;49.38;101592.25;5046634;28;20025;-74
2022/07/29 10:22:09;;;;;;;6.50;3.10;;;;;;;23.51;50.32;101596.94;5049765;28;20037;-73
2022/07/29 10:24:35;;;;;;;6.65;3.72;;;;;;;23.38;47.10;101604.03;5050225;28;20460;-74
2022/07/29 10:27:02;;;;;;;5.93;3.42;;;;;;;23.13;49.74;101596.78;5051021;28;20112;-74
2022/07/29 10:29:28;;;;;;;5.00;3.08;;;;;;;23.09;51.37;101595.28;5051387;28;20033;-73
2022/07/29 10:32:06;;;;;;;5.45;3.10;;;;;;;23.16;48.07;101590.41;5050832;28;20024;-74
2022/07/29 10:35:03;;;;;;;8.82;4.03;;;;;;;23.23;49.84;101597.88;5051998;28;20046;-73
2022/07/29 10:37:55;;;;;;;8.02;3.33;;;;;;;23.28;49.53;101593.13;5049938;28;20384;-74
2022/07/29 10:43:25;;;;;;;6.72;3.13;;;;;;;23.65;48.12;101584.53;5039257;28;20048;-74
2022/07/29 10:45:56;;;;;;;6.82;3.63;;;;;;;23.86;48.32;101588.44;5044355;28;20068;-74
2022/07/29 10:48:22;;;;;;;6.63;3.22;;;;;;;24.01;48.16;101586.53;5051374;28;20029;-74
2022/07/29 10:51:04;;;;;;;9.60;3.72;;;;;;;24.12;47.74;101588.47;5050159;28;20061;-74
2022/07/29 10:53:52;;;;;;;6.25;3.63;;;;;;;24.20;47.57;101589.66;5050538;28;20057;-74
2022/07/29 10:56:28;;;;;;;4.88;3.70;;;;;;;24.24;46.69;101585.81;5050784;28;20033;-74
2022/07/29 10:59:19;;;;;;;6.63;3.50;;;;;;;24.38;47.46;101586.66;5044005;28;20037;-74
2022/07/29 11:01:45;;;;;;;13.90;3.30;;;;;;;24.57;46.76;101589.78;5049707;28;20033;-74
2022/07/29 11:04:11;;;;;;;8.48;3.72;;;;;;;24.87;47.44;101591.22;5048055;28;20487;-74
2022/07/29 11:07:05;;;;;;;4.63;3.42;;;;;;;25.03;46.66;101591.81;5049653;28;20021;-74
2022/07/29 11:09:30;;;;;;;7.72;2.97;;;;;;;25.07;46.27;101589.75;5044732;28;20053;-73
2022/07/29 11:11:59;;;;;;;7.97;3.25;;;;;;;25.26;44.47;101584.81;5046407;28;20037;-74
2022/07/29 11:14:53;;;;;;;7.15;3.90;;;;;;;25.37;45.00;101587.53;5045335;28;20029;-74
2022/07/29 11:17:19;;;;;;;4.47;3.03;;;;;;;25.38;43.18;101589.25;5039525;28;20045;-74
2022/07/29 11:19:44;;;;;;;8.55;3.03;;;;;;;25.50;44.62;101583.94;5044638;28;20078;-74
2022/07/29 11:22:11;;;;;;;6.22;3.38;;;;;;;25.67;43.68;101584.41;5048726;28;20049;-74
2022/07/29 11:24:37;;;;;;;5.20;2.80;;;;;;;25.79;43.67;101573.75;5049321;28;20025;-74
2022/07/29 11:27:17;;;;;;;5.78;3.13;;;;;;;26.00;44.92;101582.84;5048443;28;20090;-74
2022/07/29 11:29:54;;;;;;;5.28;3.65;;;;;;;26.11;42.60;101571.31;5048030;28;20480;-75
2022/07/29 11:32:21;;;;;;;5.22;3.40;;;;;;;26.11;40.90;101572.16;5048884;28;20088;-75
2022/07/29 11:35:23;;;;;;;8.13;3.08;;;;;;;26.21;42.59;101572.28;5047836;28;20032;-75
2022/07/29 11:38:26;;;;;;;5.63;2.63;;;;;;;26.46;43.08;101571.22;5047289;28;20025;-74
2022/07/29 11:41:20;;;;;;;6.90;2.85;;;;;;;26.55;41.75;101572.31;5047628;28;20086;-74